Port Arthur/Tasman Peninsula, Australia
Current Conditions -  °F | °C
As of 6:00 PM on Friday 31 Oct 2014 (Local Time) from YMHB Reporting Station
Clear Clear  
Wind Chill: 72°   Ceiling: Unl
Heat Index: 72°   Visibility: 6mi
Dew Point: 50°   Wind: 13mph
Humidity: 46%   Direction: 10°N
Pressure: 29.38"   Gusts: NA
Location:  43.15°S, 147.85°E
Report Text: YMHB 310700Z 01011KT CAVOK 22/10 Q0995
Loading
Personal Weather Stations






























Interactive Weather Map
Tropical Storm Tracking
New forecast layout! Learn more

10-Day Weather Forecast

Advertisements
Track Severe Weather on mobile